sensor_id;sensor_type;location;lat;lon;timestamp;temperature;humidity
67942;SHT31;54731;42.600;23.476;2023-05-07T00:01:44;11.00;71.62
67942;SHT31;54731;42.600;23.476;2023-05-07T00:04:10;10.98;71.81
67942;SHT31;54731;42.600;23.476;2023-05-07T00:06:35;10.98;71.70
67942;SHT31;54731;42.600;23.476;2023-05-07T00:09:01;11.01;71.45
67942;SHT31;54731;42.600;23.476;2023-05-07T00:11:27;11.03;71.62
67942;SHT31;54731;42.600;23.476;2023-05-07T00:13:53;11.01;71.64
67942;SHT31;54731;42.600;23.476;2023-05-07T00:16:18;10.98;72.01
67942;SHT31;54731;42.600;23.476;2023-05-07T00:18:44;11.00;71.96
67942;SHT31;54731;42.600;23.476;2023-05-07T00:21:09;10.97;71.91
67942;SHT31;54731;42.600;23.476;2023-05-07T00:23:34;10.94;72.22
67942;SHT31;54731;42.600;23.476;2023-05-07T00:26:00;10.90;72.40
67942;SHT31;54731;42.600;23.476;2023-05-07T00:28:25;10.84;72.74
67942;SHT31;54731;42.600;23.476;2023-05-07T00:30:50;10.81;72.83
67942;SHT31;54731;42.600;23.476;2023-05-07T00:33:15;10.78;72.86
67942;SHT31;54731;42.600;23.476;2023-05-07T00:35:42;10.78;72.92
67942;SHT31;54731;42.600;23.476;2023-05-07T00:38:07;10.78;72.80
67942;SHT31;54731;42.600;23.476;2023-05-07T00:40:32;10.73;73.03
67942;SHT31;54731;42.600;23.476;2023-05-07T00:42:58;10.71;72.93
67942;SHT31;54731;42.600;23.476;2023-05-07T00:45:27;10.70;72.97
67942;SHT31;54731;42.600;23.476;2023-05-07T00:47:59;10.66;73.39
67942;SHT31;54731;42.600;23.476;2023-05-07T00:50:25;10.59;73.71
67942;SHT31;54731;42.600;23.476;2023-05-07T00:52:51;10.44;74.15
67942;SHT31;54731;42.600;23.476;2023-05-07T00:55:16;10.59;73.42
67942;SHT31;54731;42.600;23.476;2023-05-07T00:57:42;10.54;73.49
67942;SHT31;54731;42.600;23.476;2023-05-07T01:00:08;10.54;73.62
67942;SHT31;54731;42.600;23.476;2023-05-07T01:02:41;10.44;74.64
67942;SHT31;54731;42.600;23.476;2023-05-07T01:05:09;10.46;74.37
67942;SHT31;54731;42.600;23.476;2023-05-07T01:07:36;10.49;74.11
67942;SHT31;54731;42.600;23.476;2023-05-07T01:10:03;10.52;74.21
67942;SHT31;54731;42.600;23.476;2023-05-07T01:12:29;10.53;74.33
67942;SHT31;54731;42.600;23.476;2023-05-07T01:14:56;10.59;74.71
67942;SHT31;54731;42.600;23.476;2023-05-07T01:17:21;10.63;74.94
67942;SHT31;54731;42.600;23.476;2023-05-07T01:19:46;10.67;74.95
67942;SHT31;54731;42.600;23.476;2023-05-07T01:22:13;10.73;74.67
67942;SHT31;54731;42.600;23.476;2023-05-07T01:24:40;10.74;74.83
67942;SHT31;54731;42.600;23.476;2023-05-07T01:27:05;10.81;74.64
67942;SHT31;54731;42.600;23.476;2023-05-07T01:29:30;10.78;74.69
67942;SHT31;54731;42.600;23.476;2023-05-07T01:31:59;10.71;74.80
67942;SHT31;54731;42.600;23.476;2023-05-07T01:34:25;10.64;75.17
67942;SHT31;54731;42.600;23.476;2023-05-07T01:36:53;10.60;75.54
67942;SHT31;54731;42.600;23.476;2023-05-07T01:39:19;10.68;75.51
67942;SHT31;54731;42.600;23.476;2023-05-07T01:41:45;10.54;75.96
67942;SHT31;54731;42.600;23.476;2023-05-07T01:44:12;10.49;76.39
67942;SHT31;54731;42.600;23.476;2023-05-07T01:46:37;10.50;76.49
67942;SHT31;54731;42.600;23.476;2023-05-07T01:49:03;10.43;76.67
67942;SHT31;54731;42.600;23.476;2023-05-07T01:51:28;10.44;76.76
67942;SHT31;54731;42.600;23.476;2023-05-07T01:53:54;10.43;76.83
67942;SHT31;54731;42.600;23.476;2023-05-07T01:56:19;10.39;76.99
67942;SHT31;54731;42.600;23.476;2023-05-07T01:58:45;10.43;77.12
67942;SHT31;54731;42.600;23.476;2023-05-07T02:01:12;10.39;77.11
67942;SHT31;54731;42.600;23.476;2023-05-07T02:03:37;10.39;77.45
67942;SHT31;54731;42.600;23.476;2023-05-07T02:06:02;10.36;77.69
67942;SHT31;54731;42.600;23.476;2023-05-07T02:08:28;10.30;77.88
67942;SHT31;54731;42.600;23.476;2023-05-07T02:10:53;10.24;78.28
67942;SHT31;54731;42.600;23.476;2023-05-07T02:13:18;10.24;78.46
67942;SHT31;54731;42.600;23.476;2023-05-07T02:15:44;10.26;78.57
67942;SHT31;54731;42.600;23.476;2023-05-07T02:18:09;10.19;78.95
67942;SHT31;54731;42.600;23.476;2023-05-07T02:20:35;10.22;78.85
67942;SHT31;54731;42.600;23.476;2023-05-07T02:23:00;10.19;78.93
67942;SHT31;54731;42.600;23.476;2023-05-07T02:25:26;10.16;79.01
67942;SHT31;54731;42.600;23.476;2023-05-07T02:27:51;10.13;79.15
67942;SHT31;54731;42.600;23.476;2023-05-07T02:30:16;10.14;79.29
67942;SHT31;54731;42.600;23.476;2023-05-07T02:32:42;10.13;79.45
67942;SHT31;54731;42.600;23.476;2023-05-07T02:35:07;10.13;79.70
67942;SHT31;54731;42.600;23.476;2023-05-07T02:37:33;10.12;79.48
67942;SHT31;54731;42.600;23.476;2023-05-07T02:39:58;10.05;79.53
67942;SHT31;54731;42.600;23.476;2023-05-07T02:42:23;10.05;79.64
67942;SHT31;54731;42.600;23.476;2023-05-07T02:44:49;10.03;79.55
67942;SHT31;54731;42.600;23.476;2023-05-07T02:47:15;10.01;79.54
67942;SHT31;54731;42.600;23.476;2023-05-07T02:49:40;9.98;79.60
67942;SHT31;54731;42.600;23.476;2023-05-07T02:52:06;10.02;79.63
67942;SHT31;54731;42.600;23.476;2023-05-07T02:54:31;9.98;79.71
67942;SHT31;54731;42.600;23.476;2023-05-07T02:56:56;10.05;79.42
67942;SHT31;54731;42.600;23.476;2023-05-07T02:59:21;10.10;79.34
67942;SHT31;54731;42.600;23.476;2023-05-07T03:01:47;10.05;79.48
67942;SHT31;54731;42.600;23.476;2023-05-07T03:04:12;10.05;79.62
67942;SHT31;54731;42.600;23.476;2023-05-07T03:06:37;9.93;79.94
67942;SHT31;54731;42.600;23.476;2023-05-07T03:09:03;9.88;80.27
67942;SHT31;54731;42.600;23.476;2023-05-07T03:11:28;9.89;80.29
67942;SHT31;54731;42.600;23.476;2023-05-07T03:13:53;9.88;80.33
67942;SHT31;54731;42.600;23.476;2023-05-07T03:16:19;9.83;80.38
67942;SHT31;54731;42.600;23.476;2023-05-07T03:18:44;9.82;80.69
67942;SHT31;54731;42.600;23.476;2023-05-07T03:21:09;9.89;80.62
67942;SHT31;54731;42.600;23.476;2023-05-07T03:23:35;9.92;80.49
67942;SHT31;54731;42.600;23.476;2023-05-07T03:26:00;9.83;80.78
67942;SHT31;54731;42.600;23.476;2023-05-07T03:28:25;9.83;80.88
67942;SHT31;54731;42.600;23.476;2023-05-07T03:30:50;9.85;80.94
67942;SHT31;54731;42.600;23.476;2023-05-07T03:33:16;9.86;80.79
67942;SHT31;54731;42.600;23.476;2023-05-07T03:35:41;9.91;80.84
67942;SHT31;54731;42.600;23.476;2023-05-07T03:38:07;9.93;80.91
67942;SHT31;54731;42.600;23.476;2023-05-07T03:40:32;9.92;81.32
67942;SHT31;54731;42.600;23.476;2023-05-07T03:42:57;9.93;81.47
67942;SHT31;54731;42.600;23.476;2023-05-07T03:45:22;9.93;81.81
67942;SHT31;54731;42.600;23.476;2023-05-07T03:47:48;9.98;81.77
67942;SHT31;54731;42.600;23.476;2023-05-07T03:50:13;10.01;81.75
67942;SHT31;54731;42.600;23.476;2023-05-07T03:52:38;10.01;81.92
67942;SHT31;54731;42.600;23.476;2023-05-07T03:55:04;9.98;81.87
67942;SHT31;54731;42.600;23.476;2023-05-07T03:57:29;10.03;81.74
67942;SHT31;54731;42.600;23.476;2023-05-07T03:59:55;10.03;81.65
67942;SHT31;54731;42.600;23.476;2023-05-07T04:02:20;10.08;81.79
67942;SHT31;54731;42.600;23.476;2023-05-07T04:04:45;10.09;81.72
67942;SHT31;54731;42.600;23.476;2023-05-07T04:07:10;10.12;81.72
67942;SHT31;54731;42.600;23.476;2023-05-07T04:09:36;10.13;81.80
67942;SHT31;54731;42.600;23.476;2023-05-07T04:12:01;10.19;81.53
67942;SHT31;54731;42.600;23.476;2023-05-07T04:14:26;10.17;81.41
67942;SHT31;54731;42.600;23.476;2023-05-07T04:16:52;10.26;81.25
67942;SHT31;54731;42.600;23.476;2023-05-07T04:19:17;10.29;81.08
67942;SHT31;54731;42.600;23.476;2023-05-07T04:21:43;10.36;80.87
67942;SHT31;54731;42.600;23.476;2023-05-07T04:24:08;10.37;80.89
67942;SHT31;54731;42.600;23.476;2023-05-07T04:26:33;10.36;80.75
67942;SHT31;54731;42.600;23.476;2023-05-07T04:28:58;10.42;80.75
67942;SHT31;54731;42.600;23.476;2023-05-07T04:31:24;10.47;80.66
67942;SHT31;54731;42.600;23.476;2023-05-07T04:33:49;10.50;80.36
67942;SHT31;54731;42.600;23.476;2023-05-07T04:36:14;10.56;80.14
67942;SHT31;54731;42.600;23.476;2023-05-07T04:38:40;10.61;80.02
67942;SHT31;54731;42.600;23.476;2023-05-07T04:41:06;10.64;79.73
67942;SHT31;54731;42.600;23.476;2023-05-07T04:43:32;10.64;79.74
67942;SHT31;54731;42.600;23.476;2023-05-07T04:45:57;10.67;79.66
67942;SHT31;54731;42.600;23.476;2023-05-07T04:48:23;10.64;78.63
67942;SHT31;54731;42.600;23.476;2023-05-07T04:50:49;10.66;78.70
67942;SHT31;54731;42.600;23.476;2023-05-07T04:53:15;10.75;78.20
67942;SHT31;54731;42.600;23.476;2023-05-07T04:55:40;10.50;79.01
67942;SHT31;54731;42.600;23.476;2023-05-07T04:58:05;10.52;79.03
67942;SHT31;54731;42.600;23.476;2023-05-07T05:00:31;10.59;78.77
67942;SHT31;54731;42.600;23.476;2023-05-07T05:02:56;10.68;78.47
67942;SHT31;54731;42.600;23.476;2023-05-07T05:05:21;10.71;78.45
67942;SHT31;54731;42.600;23.476;2023-05-07T05:07:47;10.81;78.33
67942;SHT31;54731;42.600;23.476;2023-05-07T05:10:12;10.87;78.01
67942;SHT31;54731;42.600;23.476;2023-05-07T05:12:37;10.94;77.89
67942;SHT31;54731;42.600;23.476;2023-05-07T05:15:04;10.95;77.69
67942;SHT31;54731;42.600;23.476;2023-05-07T05:17:29;11.00;77.76
67942;SHT31;54731;42.600;23.476;2023-05-07T05:19:54;11.12;77.64
67942;SHT31;54731;42.600;23.476;2023-05-07T05:22:20;11.15;77.36
67942;SHT31;54731;42.600;23.476;2023-05-07T05:24:45;11.15;77.43
67942;SHT31;54731;42.600;23.476;2023-05-07T05:27:10;11.27;77.16
67942;SHT31;54731;42.600;23.476;2023-05-07T05:29:36;11.27;77.41
67942;SHT31;54731;42.600;23.476;2023-05-07T05:32:01;11.34;77.50
67942;SHT31;54731;42.600;23.476;2023-05-07T05:34:26;11.36;77.59
67942;SHT31;54731;42.600;23.476;2023-05-07T05:36:52;11.40;77.74
67942;SHT31;54731;42.600;23.476;2023-05-07T05:39:17;11.38;77.62
67942;SHT31;54731;42.600;23.476;2023-05-07T05:41:42;11.38;77.37
67942;SHT31;54731;42.600;23.476;2023-05-07T05:44:07;11.52;77.15
67942;SHT31;54731;42.600;23.476;2023-05-07T05:46:33;11.62;76.62
67942;SHT31;54731;42.600;23.476;2023-05-07T05:48:58;11.62;76.70
67942;SHT31;54731;42.600;23.476;2023-05-07T05:51:23;11.57;76.71
67942;SHT31;54731;42.600;23.476;2023-05-07T05:53:49;11.57;76.19
67942;SHT31;54731;42.600;23.476;2023-05-07T05:56:15;11.63;76.41
67942;SHT31;54731;42.600;23.476;2023-05-07T05:58:41;11.80;76.26
67942;SHT31;54731;42.600;23.476;2023-05-07T06:01:06;11.92;76.40
67942;SHT31;54731;42.600;23.476;2023-05-07T06:03:31;11.92;76.44
67942;SHT31;54731;42.600;23.476;2023-05-07T06:05:57;12.00;75.64
67942;SHT31;54731;42.600;23.476;2023-05-07T06:08:22;12.12;75.07
67942;SHT31;54731;42.600;23.476;2023-05-07T06:10:47;12.19;75.17
67942;SHT31;54731;42.600;23.476;2023-05-07T06:13:13;12.16;76.02
67942;SHT31;54731;42.600;23.476;2023-05-07T06:15:38;12.23;76.45
67942;SHT31;54731;42.600;23.476;2023-05-07T06:18:03;12.29;76.00
67942;SHT31;54731;42.600;23.476;2023-05-07T06:20:29;12.38;76.18
67942;SHT31;54731;42.600;23.476;2023-05-07T06:22:54;12.40;75.66
67942;SHT31;54731;42.600;23.476;2023-05-07T06:25:19;12.36;75.22
67942;SHT31;54731;42.600;23.476;2023-05-07T06:27:44;12.43;76.03
67942;SHT31;54731;42.600;23.476;2023-05-07T06:30:10;12.51;75.43
67942;SHT31;54731;42.600;23.476;2023-05-07T06:32:36;12.45;75.33
67942;SHT31;54731;42.600;23.476;2023-05-07T06:35:01;12.47;75.18
67942;SHT31;54731;42.600;23.476;2023-05-07T06:37:27;12.51;75.48
67942;SHT31;54731;42.600;23.476;2023-05-07T06:39:52;12.65;75.62
67942;SHT31;54731;42.600;23.476;2023-05-07T06:42:17;12.71;75.34
67942;SHT31;54731;42.600;23.476;2023-05-07T06:44:43;12.88;75.14
67942;SHT31;54731;42.600;23.476;2023-05-07T06:47:08;12.91;74.84
67942;SHT31;54731;42.600;23.476;2023-05-07T06:49:33;13.02;74.85
67942;SHT31;54731;42.600;23.476;2023-05-07T06:51:58;13.02;74.33
67942;SHT31;54731;42.600;23.476;2023-05-07T06:54:24;13.12;74.49
67942;SHT31;54731;42.600;23.476;2023-05-07T06:56:49;13.18;74.51
67942;SHT31;54731;42.600;23.476;2023-05-07T06:59:15;13.28;74.52
67942;SHT31;54731;42.600;23.476;2023-05-07T07:01:40;13.32;74.14
67942;SHT31;54731;42.600;23.476;2023-05-07T07:04:06;13.40;74.46
67942;SHT31;54731;42.600;23.476;2023-05-07T07:06:31;13.45;74.27
67942;SHT31;54731;42.600;23.476;2023-05-07T07:08:57;13.56;74.11
67942;SHT31;54731;42.600;23.476;2023-05-07T07:11:22;13.53;74.05
67942;SHT31;54731;42.600;23.476;2023-05-07T07:13:48;13.55;73.59
67942;SHT31;54731;42.600;23.476;2023-05-07T07:16:13;13.59;73.73
67942;SHT31;54731;42.600;23.476;2023-05-07T07:18:38;13.69;73.35
67942;SHT31;54731;42.600;23.476;2023-05-07T07:21:03;13.67;73.98
67942;SHT31;54731;42.600;23.476;2023-05-07T07:23:29;13.76;74.11
67942;SHT31;54731;42.600;23.476;2023-05-07T07:25:54;13.87;74.16
67942;SHT31;54731;42.600;23.476;2023-05-07T07:28:20;14.01;74.10
67942;SHT31;54731;42.600;23.476;2023-05-07T07:30:46;14.13;73.17
67942;SHT31;54731;42.600;23.476;2023-05-07T07:33:11;14.23;73.07
67942;SHT31;54731;42.600;23.476;2023-05-07T07:35:36;14.28;72.09
67942;SHT31;54731;42.600;23.476;2023-05-07T07:38:02;14.31;71.88
67942;SHT31;54731;42.600;23.476;2023-05-07T07:40:27;14.44;71.87
67942;SHT31;54731;42.600;23.476;2023-05-07T07:42:53;14.57;71.51
67942;SHT31;54731;42.600;23.476;2023-05-07T07:45:18;14.64;71.81
67942;SHT31;54731;42.600;23.476;2023-05-07T07:47:44;14.71;71.82
67942;SHT31;54731;42.600;23.476;2023-05-07T07:50:09;14.79;70.97
67942;SHT31;54731;42.600;23.476;2023-05-07T07:52:35;14.85;71.10
67942;SHT31;54731;42.600;23.476;2023-05-07T07:55:00;14.96;70.82
67942;SHT31;54731;42.600;23.476;2023-05-07T07:57:26;14.96;70.04
67942;SHT31;54731;42.600;23.476;2023-05-07T07:59:51;15.00;70.15
67942;SHT31;54731;42.600;23.476;2023-05-07T08:02:17;15.07;70.48
67942;SHT31;54731;42.600;23.476;2023-05-07T08:04:42;15.22;71.27
67942;SHT31;54731;42.600;23.476;2023-05-07T08:07:07;15.30;69.97
67942;SHT31;54731;42.600;23.476;2023-05-07T08:09:33;15.44;69.99
67942;SHT31;54731;42.600;23.476;2023-05-07T08:11:58;15.49;69.34
67942;SHT31;54731;42.600;23.476;2023-05-07T08:14:23;15.47;68.64
67942;SHT31;54731;42.600;23.476;2023-05-07T08:16:49;15.59;68.83
67942;SHT31;54731;42.600;23.476;2023-05-07T08:19:14;15.66;68.90
67942;SHT31;54731;42.600;23.476;2023-05-07T08:21:39;15.73;68.93
67942;SHT31;54731;42.600;23.476;2023-05-07T08:24:05;15.83;67.56
67942;SHT31;54731;42.600;23.476;2023-05-07T08:26:30;15.84;67.29
67942;SHT31;54731;42.600;23.476;2023-05-07T08:28:56;15.93;66.65
67942;SHT31;54731;42.600;23.476;2023-05-07T08:31:21;15.90;66.82
67942;SHT31;54731;42.600;23.476;2023-05-07T08:33:46;15.98;66.98
67942;SHT31;54731;42.600;23.476;2023-05-07T08:36:12;16.00;67.45
67942;SHT31;54731;42.600;23.476;2023-05-07T08:38:37;16.10;68.19
67942;SHT31;54731;42.600;23.476;2023-05-07T08:41:03;16.28;68.46
67942;SHT31;54731;42.600;23.476;2023-05-07T08:43:29;16.42;67.34
67942;SHT31;54731;42.600;23.476;2023-05-07T08:46:00;16.56;67.55
67942;SHT31;54731;42.600;23.476;2023-05-07T08:48:27;16.65;64.87
67942;SHT31;54731;42.600;23.476;2023-05-07T08:50:54;16.65;63.58
67942;SHT31;54731;42.600;23.476;2023-05-07T08:53:20;16.75;65.38
67942;SHT31;54731;42.600;23.476;2023-05-07T08:55:45;16.87;63.08
67942;SHT31;54731;42.600;23.476;2023-05-07T08:58:11;16.99;63.31
67942;SHT31;54731;42.600;23.476;2023-05-07T09:00:37;17.06;62.20
67942;SHT31;54731;42.600;23.476;2023-05-07T09:03:03;17.16;61.00
67942;SHT31;54731;42.600;23.476;2023-05-07T09:05:28;17.23;59.24
67942;SHT31;54731;42.600;23.476;2023-05-07T09:07:53;17.33;59.20
67942;SHT31;54731;42.600;23.476;2023-05-07T09:10:20;17.48;60.78
67942;SHT31;54731;42.600;23.476;2023-05-07T09:12:46;17.60;60.10
67942;SHT31;54731;42.600;23.476;2023-05-07T09:15:12;17.70;56.46
67942;SHT31;54731;42.600;23.476;2023-05-07T09:17:37;17.71;55.62
67942;SHT31;54731;42.600;23.476;2023-05-07T09:20:06;17.81;55.93
67942;SHT31;54731;42.600;23.476;2023-05-07T09:22:32;17.82;53.72
67942;SHT31;54731;42.600;23.476;2023-05-07T09:24:58;18.04;52.46
67942;SHT31;54731;42.600;23.476;2023-05-07T09:27:23;18.16;53.02
67942;SHT31;54731;42.600;23.476;2023-05-07T09:29:48;18.24;55.14
67942;SHT31;54731;42.600;23.476;2023-05-07T09:32:14;18.38;55.49
67942;SHT31;54731;42.600;23.476;2023-05-07T09:34:41;18.49;55.11
67942;SHT31;54731;42.600;23.476;2023-05-07T09:37:06;18.55;52.98
67942;SHT31;54731;42.600;23.476;2023-05-07T09:39:48;18.57;50.93
67942;SHT31;54731;42.600;23.476;2023-05-07T09:42:14;18.64;49.01
67942;SHT31;54731;42.600;23.476;2023-05-07T09:44:39;18.74;49.83
67942;SHT31;54731;42.600;23.476;2023-05-07T09:47:06;18.92;51.94
67942;SHT31;54731;42.600;23.476;2023-05-07T09:49:34;18.99;50.08
67942;SHT31;54731;42.600;23.476;2023-05-07T09:52:01;18.96;46.67
67942;SHT31;54731;42.600;23.476;2023-05-07T09:54:27;19.11;46.14
67942;SHT31;54731;42.600;23.476;2023-05-07T09:56:52;19.34;47.28
67942;SHT31;54731;42.600;23.476;2023-05-07T09:59:20;19.11;46.69
67942;SHT31;54731;42.600;23.476;2023-05-07T10:01:46;19.30;47.59
67942;SHT31;54731;42.600;23.476;2023-05-07T10:04:12;19.44;45.58
67942;SHT31;54731;42.600;23.476;2023-05-07T10:06:38;19.59;45.30
67942;SHT31;54731;42.600;23.476;2023-05-07T10:09:04;19.64;45.41
67942;SHT31;54731;42.600;23.476;2023-05-07T10:11:32;19.48;46.53
67942;SHT31;54731;42.600;23.476;2023-05-07T10:13:57;19.68;46.41
67942;SHT31;54731;42.600;23.476;2023-05-07T10:16:23;19.92;47.80
67942;SHT31;54731;42.600;23.476;2023-05-07T10:18:49;19.95;46.57
67942;SHT31;54731;42.600;23.476;2023-05-07T10:21:23;20.04;44.90
67942;SHT31;54731;42.600;23.476;2023-05-07T10:23:50;20.10;43.94
67942;SHT31;54731;42.600;23.476;2023-05-07T10:26:18;20.02;45.09
67942;SHT31;54731;42.600;23.476;2023-05-07T10:28:46;20.22;44.63
67942;SHT31;54731;42.600;23.476;2023-05-07T10:33:44;20.52;42.77
67942;SHT31;54731;42.600;23.476;2023-05-07T10:36:11;20.40;42.66
67942;SHT31;54731;42.600;23.476;2023-05-07T10:38:37;20.56;39.13
67942;SHT31;54731;42.600;23.476;2023-05-07T10:41:02;20.74;42.84
67942;SHT31;54731;42.600;23.476;2023-05-07T10:43:41;20.97;41.11
67942;SHT31;54731;42.600;23.476;2023-05-07T10:46:20;21.15;39.34
67942;SHT31;54731;42.600;23.476;2023-05-07T10:51:27;21.24;38.71
67942;SHT31;54731;42.600;23.476;2023-05-07T10:56:43;20.87;39.19
67942;SHT31;54731;42.600;23.476;2023-05-07T11:01:56;21.07;40.97
67942;SHT31;54731;42.600;23.476;2023-05-07T11:04:22;21.23;39.80
67942;SHT31;54731;42.600;23.476;2023-05-07T11:07:20;21.61;39.11
67942;SHT31;54731;42.600;23.476;2023-05-07T11:15:06;22.14;38.61
67942;SHT31;54731;42.600;23.476;2023-05-07T11:17:32;22.14;37.63
67942;SHT31;54731;42.600;23.476;2023-05-07T11:19:58;22.35;37.66
67942;SHT31;54731;42.600;23.476;2023-05-07T11:22:41;22.54;38.24
67942;SHT31;54731;42.600;23.476;2023-05-07T11:25:06;22.98;38.44
67942;SHT31;54731;42.600;23.476;2023-05-07T11:27:32;23.32;38.14
67942;SHT31;54731;42.600;23.476;2023-05-07T11:29:58;23.97;36.70
67942;SHT31;54731;42.600;23.476;2023-05-07T11:32:28;24.10;34.94
67942;SHT31;54731;42.600;23.476;2023-05-07T11:34:55;23.76;34.37
67942;SHT31;54731;42.600;23.476;2023-05-07T11:37:21;24.07;36.01
67942;SHT31;54731;42.600;23.476;2023-05-07T11:39:47;24.40;35.70
67942;SHT31;54731;42.600;23.476;2023-05-07T11:42:31;24.71;34.41
67942;SHT31;54731;42.600;23.476;2023-05-07T11:44:57;23.89;35.28
67942;SHT31;54731;42.600;23.476;2023-05-07T11:47:22;24.31;34.29
67942;SHT31;54731;42.600;23.476;2023-05-07T11:49:50;24.81;35.57
67942;SHT31;54731;42.600;23.476;2023-05-07T11:52:17;25.07;34.19
67942;SHT31;54731;42.600;23.476;2023-05-07T11:54:56;24.34;35.02
67942;SHT31;54731;42.600;23.476;2023-05-07T11:57:24;24.99;34.76
67942;SHT31;54731;42.600;23.476;2023-05-07T11:59:57;25.65;34.78
67942;SHT31;54731;42.600;23.476;2023-05-07T12:02:22;26.20;32.78
67942;SHT31;54731;42.600;23.476;2023-05-07T12:04:48;26.34;32.72
67942;SHT31;54731;42.600;23.476;2023-05-07T12:07:14;26.52;31.76
67942;SHT31;54731;42.600;23.476;2023-05-07T12:09:41;27.02;33.41
67942;SHT31;54731;42.600;23.476;2023-05-07T12:12:06;27.33;32.56
67942;SHT31;54731;42.600;23.476;2023-05-07T12:14:32;27.73;33.63
67942;SHT31;54731;42.600;23.476;2023-05-07T12:16:57;27.87;32.55
67942;SHT31;54731;42.600;23.476;2023-05-07T12:19:22;28.22;31.60
67942;SHT31;54731;42.600;23.476;2023-05-07T12:21:48;27.64;31.26
67942;SHT31;54731;42.600;23.476;2023-05-07T12:24:16;27.21;30.07
67942;SHT31;54731;42.600;23.476;2023-05-07T12:26:43;26.92;31.55
67942;SHT31;54731;42.600;23.476;2023-05-07T12:29:08;25.42;32.98
67942;SHT31;54731;42.600;23.476;2023-05-07T12:31:33;24.96;33.77
67942;SHT31;54731;42.600;23.476;2023-05-07T12:33:59;24.72;34.79
67942;SHT31;54731;42.600;23.476;2023-05-07T12:36:24;25.26;35.67
67942;SHT31;54731;42.600;23.476;2023-05-07T12:38:49;25.94;33.57
67942;SHT31;54731;42.600;23.476;2023-05-07T12:41:15;26.17;33.60
67942;SHT31;54731;42.600;23.476;2023-05-07T12:43:44;26.31;32.04
67942;SHT31;54731;42.600;23.476;2023-05-07T12:46:09;26.48;34.34
67942;SHT31;54731;42.600;23.476;2023-05-07T12:48:38;26.14;33.32
67942;SHT31;54731;42.600;23.476;2023-05-07T12:51:05;26.20;34.06
67942;SHT31;54731;42.600;23.476;2023-05-07T12:53:30;26.01;33.79
67942;SHT31;54731;42.600;23.476;2023-05-07T12:55:57;26.36;34.62
67942;SHT31;54731;42.600;23.476;2023-05-07T12:58:32;26.71;32.84
67942;SHT31;54731;42.600;23.476;2023-05-07T13:00:59;26.68;34.03
67942;SHT31;54731;42.600;23.476;2023-05-07T13:03:27;26.95;33.20
67942;SHT31;54731;42.600;23.476;2023-05-07T13:05:53;26.68;33.15
67942;SHT31;54731;42.600;23.476;2023-05-07T13:08:31;27.11;33.50
67942;SHT31;54731;42.600;23.476;2023-05-07T13:10:58;27.56;33.38
67942;SHT31;54731;42.600;23.476;2023-05-07T13:13:24;27.76;32.53
67942;SHT31;54731;42.600;23.476;2023-05-07T13:15:49;28.00;30.02
67942;SHT31;54731;42.600;23.476;2023-05-07T13:18:14;28.03;30.41
67942;SHT31;54731;42.600;23.476;2023-05-07T13:20:40;28.34;31.40
67942;SHT31;54731;42.600;23.476;2023-05-07T13:23:05;28.72;30.38
67942;SHT31;54731;42.600;23.476;2023-05-07T13:25:30;28.25;29.88
67942;SHT31;54731;42.600;23.476;2023-05-07T13:27:58;28.24;29.68
67942;SHT31;54731;42.600;23.476;2023-05-07T13:30:24;28.11;29.17
67942;SHT31;54731;42.600;23.476;2023-05-07T13:32:49;28.11;30.95
67942;SHT31;54731;42.600;23.476;2023-05-07T13:35:15;28.28;28.62
67942;SHT31;54731;42.600;23.476;2023-05-07T13:37:41;28.34;31.21
67942;SHT31;54731;42.600;23.476;2023-05-07T13:40:07;28.67;28.78
67942;SHT31;54731;42.600;23.476;2023-05-07T13:42:32;28.49;29.20
67942;SHT31;54731;42.600;23.476;2023-05-07T13:44:57;28.74;30.11
67942;SHT31;54731;42.600;23.476;2023-05-07T13:47:23;29.09;30.10
67942;SHT31;54731;42.600;23.476;2023-05-07T13:49:48;28.89;29.22
67942;SHT31;54731;42.600;23.476;2023-05-07T13:52:13;28.81;30.76
67942;SHT31;54731;42.600;23.476;2023-05-07T13:54:38;29.12;29.90
67942;SHT31;54731;42.600;23.476;2023-05-07T13:57:04;29.08;27.61
67942;SHT31;54731;42.600;23.476;2023-05-07T13:59:29;28.57;28.34
67942;SHT31;54731;42.600;23.476;2023-05-07T14:01:54;29.08;28.98
67942;SHT31;54731;42.600;23.476;2023-05-07T14:04:20;29.29;28.78
67942;SHT31;54731;42.600;23.476;2023-05-07T14:06:45;29.20;28.10
67942;SHT31;54731;42.600;23.476;2023-05-07T14:09:10;29.53;28.86
67942;SHT31;54731;42.600;23.476;2023-05-07T14:11:35;29.85;26.77
67942;SHT31;54731;42.600;23.476;2023-05-07T14:14:01;29.39;27.22
67942;SHT31;54731;42.600;23.476;2023-05-07T14:16:26;28.65;27.42
67942;SHT31;54731;42.600;23.476;2023-05-07T14:18:51;29.09;28.80
67942;SHT31;54731;42.600;23.476;2023-05-07T14:21:17;28.72;27.75
67942;SHT31;54731;42.600;23.476;2023-05-07T14:23:42;29.05;28.13
67942;SHT31;54731;42.600;23.476;2023-05-07T14:26:07;29.27;28.72
67942;SHT31;54731;42.600;23.476;2023-05-07T14:28:32;29.36;26.95
67942;SHT31;54731;42.600;23.476;2023-05-07T14:30:58;29.12;27.50
67942;SHT31;54731;42.600;23.476;2023-05-07T14:33:23;29.59;28.73
67942;SHT31;54731;42.600;23.476;2023-05-07T14:35:48;29.52;26.48
67942;SHT31;54731;42.600;23.476;2023-05-07T14:38:14;29.22;26.26
67942;SHT31;54731;42.600;23.476;2023-05-07T14:40:39;29.50;26.55
67942;SHT31;54731;42.600;23.476;2023-05-07T14:43:05;29.93;26.60
67942;SHT31;54731;42.600;23.476;2023-05-07T14:45:30;29.97;26.81
67942;SHT31;54731;42.600;23.476;2023-05-07T14:47:55;29.20;25.58
67942;SHT31;54731;42.600;23.476;2023-05-07T14:50:21;28.81;26.24
67942;SHT31;54731;42.600;23.476;2023-05-07T14:52:46;28.24;26.93
67942;SHT31;54731;42.600;23.476;2023-05-07T14:55:11;28.82;28.28
67942;SHT31;54731;42.600;23.476;2023-05-07T14:57:37;29.42;27.59
67942;SHT31;54731;42.600;23.476;2023-05-07T15:00:03;30.00;28.46
67942;SHT31;54731;42.600;23.476;2023-05-07T15:02:29;29.98;24.67
67942;SHT31;54731;42.600;23.476;2023-05-07T15:04:54;30.11;23.95
67942;SHT31;54731;42.600;23.476;2023-05-07T15:07:19;30.28;25.64
67942;SHT31;54731;42.600;23.476;2023-05-07T15:09:45;30.29;24.72
67942;SHT31;54731;42.600;23.476;2023-05-07T15:12:10;30.41;25.43
67942;SHT31;54731;42.600;23.476;2023-05-07T15:14:36;30.52;23.95
67942;SHT31;54731;42.600;23.476;2023-05-07T15:17:01;30.51;25.29
67942;SHT31;54731;42.600;23.476;2023-05-07T15:19:26;29.74;25.60
67942;SHT31;54731;42.600;23.476;2023-05-07T15:21:52;29.47;25.81
67942;SHT31;54731;42.600;23.476;2023-05-07T15:24:17;29.32;25.48
67942;SHT31;54731;42.600;23.476;2023-05-07T15:26:42;29.26;26.25